Time;durP1;ratioP1;P1;durP2;ratioP2;P2;SDS_P1;SDS_P2;PMS_P1;PMS_P2;Temp;Humidity;BMP_temperature;BMP_pressure;BME280_temperature;BME280_humidity;BME280_pressure;Samples;Min_cycle;Max_cycle;Signal;HPM_P1;HPM_P2
2021/09/18 00:00:32;;;;;;;7.70;7.00;;;16.90;77.30;;;;;;5026979;28;20193;-87
2021/09/18 00:02:58;;;;;;;8.13;7.53;;;16.80;77.50;;;;;;5025822;28;20225;-88
2021/09/18 00:05:27;;;;;;;7.90;7.20;;;16.90;76.00;;;;;;5009493;28;20222;-87
2021/09/18 00:07:55;;;;;;;7.80;7.10;;;16.80;77.40;;;;;;5025453;28;20224;-89
2021/09/18 00:10:24;;;;;;;7.83;7.13;;;16.80;77.20;;;;;;5026435;28;20181;-87
2021/09/18 00:12:54;;;;;;;7.50;6.90;;;16.80;77.50;;;;;;5042628;28;20236;-87
2021/09/18 00:15:20;;;;;;;8.50;7.80;;;16.90;77.50;;;;;;5009565;28;20189;-87
2021/09/18 00:17:56;;;;;;;8.90;8.07;;;16.80;76.80;;;;;;5040697;28;20226;-87
2021/09/18 00:20:27;;;;;;;7.87;7.17;;;16.90;76.30;;;;;;5010255;28;20239;-87
2021/09/18 00:22:53;;;;;;;7.90;7.13;;;16.80;76.80;;;;;;5025220;28;20197;-87
2021/09/18 00:25:22;;;;;;;7.70;7.03;;;16.70;77.10;;;;;;5016650;28;20196;-87
2021/09/18 00:27:48;;;;;;;7.13;6.53;;;16.70;76.80;;;;;;5018846;28;20225;-87
2021/09/18 00:30:14;;;;;;;7.03;6.50;;;16.80;77.60;;;;;;5029493;28;20252;-88
2021/09/18 00:32:40;;;;;;;7.22;6.70;;;16.70;76.70;;;;;;5024680;28;20200;-87
2021/09/18 00:35:10;;;;;;;21.45;10.25;;;16.80;76.80;;;;;;4988531;28;20419;-88
2021/09/18 00:37:42;;;;;;;9.97;9.17;;;16.70;76.10;;;;;;5033794;28;20265;-90
2021/09/18 00:40:11;;;;;;;8.88;7.82;;;16.70;77.30;;;;;;5040587;28;20214;-87
2021/09/18 00:42:43;;;;;;;10.93;10.00;;;16.80;77.20;;;;;;5035002;28;20318;-88
2021/09/18 00:45:12;;;;;;;9.48;8.82;;;16.80;76.90;;;;;;5026121;28;20194;-87
2021/09/18 00:47:40;;;;;;;8.30;7.70;;;16.80;76.80;;;;;;5009500;28;20227;-87
2021/09/18 00:50:07;;;;;;;7.90;7.23;;;16.70;76.60;;;;;;5043163;28;20401;-87
2021/09/18 00:52:38;;;;;;;7.77;7.10;;;16.60;76.70;;;;;;5026015;28;20207;-86
2021/09/18 00:55:05;;;;;;;7.87;7.17;;;16.60;76.60;;;;;;5023884;28;20215;-87
2021/09/18 00:57:31;;;;;;;7.10;6.60;;;16.70;76.50;;;;;;5006700;28;20728;-87
2021/09/18 01:00:03;;;;;;;7.27;6.57;;;16.60;76.70;;;;;;5010550;28;20210;-87
2021/09/18 01:02:30;;;;;;;7.43;6.87;;;16.60;76.70;;;;;;5007546;28;20213;-87
2021/09/18 01:04:57;;;;;;;7.57;6.77;;;16.70;76.30;;;;;;4998693;28;20221;-87
2021/09/18 01:07:23;;;;;;;7.33;6.63;;;16.70;76.10;;;;;;5026315;28;20216;-87
2021/09/18 01:09:50;;;;;;;7.37;6.77;;;16.70;74.40;;;;;;5023148;28;20189;-87
2021/09/18 01:12:22;;;;;;;6.97;6.33;;;16.60;76.30;;;;;;5045180;28;20194;-87
2021/09/18 01:14:50;;;;;;;6.67;6.17;;;16.50;76.00;;;;;;5032427;28;20250;-87
2021/09/18 01:17:17;;;;;;;7.17;6.57;;;16.40;75.40;;;;;;5031515;28;20198;-87
2021/09/18 01:19:43;;;;;;;6.87;6.47;;;16.20;76.60;;;;;;5040395;28;20250;-88
2021/09/18 01:22:10;;;;;;;6.70;6.00;;;16.10;76.80;;;;;;5042246;28;20268;-87
2021/09/18 01:24:39;;;;;;;6.33;5.83;;;16.20;77.60;;;;;;5025136;28;20201;-87
2021/09/18 01:27:05;;;;;;;7.20;6.50;;;16.30;77.20;;;;;;5005627;28;20237;-87
2021/09/18 01:29:34;;;;;;;6.50;6.03;;;16.30;76.90;;;;;;5018866;28;20208;-87
2021/09/18 01:32:00;;;;;;;6.87;6.37;;;16.20;76.50;;;;;;5043034;28;20239;-88
2021/09/18 01:34:26;;;;;;;9.97;6.67;;;16.30;77.00;;;;;;5012269;28;20268;-87
2021/09/18 01:36:53;;;;;;;7.93;7.10;;;16.30;76.60;;;;;;5003428;28;20717;-87
2021/09/18 01:39:21;;;;;;;7.43;6.83;;;16.20;76.10;;;;;;5026850;28;20201;-87
2021/09/18 01:41:50;;;;;;;7.53;6.93;;;16.20;76.50;;;;;;5024969;28;20197;-87
2021/09/18 01:44:19;;;;;;;9.30;8.47;;;16.20;76.70;;;;;;5024715;28;20197;-87
2021/09/18 01:46:49;;;;;;;7.23;6.63;;;16.20;76.10;;;;;;5024448;28;20229;-87
2021/09/18 01:49:17;;;;;;;9.27;8.47;;;16.20;76.80;;;;;;5026466;28;20213;-87
2021/09/18 01:52:07;;;;;;;8.23;7.60;;;16.10;76.00;;;;;;5009720;28;20243;-87
2021/09/18 01:54:34;;;;;;;7.43;6.93;;;16.00;76.40;;;;;;5014860;28;20201;-87
2021/09/18 01:57:09;;;;;;;8.17;7.37;;;16.00;77.70;;;;;;5023694;28;20201;-87
2021/09/18 01:59:35;;;;;;;7.47;6.77;;;16.00;77.10;;;;;;5024593;28;20196;-87
2021/09/18 02:02:07;;;;;;;7.43;6.43;;;16.00;77.00;;;;;;5025897;28;20199;-87
2021/09/18 02:04:32;;;;;;;6.77;6.27;;;16.10;76.80;;;;;;5008868;28;20212;-89
2021/09/18 02:07:01;;;;;;;6.13;5.73;;;16.10;76.80;;;;;;4992497;28;20214;-88
2021/09/18 02:09:28;;;;;;;6.00;5.40;;;16.00;77.30;;;;;;5045994;28;20631;-87
2021/09/18 02:11:54;;;;;;;6.50;6.00;;;15.80;77.40;;;;;;5035594;28;20185;-87
2021/09/18 02:14:19;;;;;;;5.77;5.33;;;15.80;78.20;;;;;;5019169;28;20191;-87
2021/09/18 02:16:46;;;;;;;5.67;5.17;;;15.80;77.80;;;;;;5027868;28;20264;-87
2021/09/18 02:19:12;;;;;;;6.93;6.30;;;15.70;78.20;;;;;;5043724;28;20227;-87
2021/09/18 02:21:38;;;;;;;7.83;6.70;;;15.60;76.70;;;;;;5035684;28;20172;-87
2021/09/18 02:24:04;;;;;;;7.43;6.83;;;15.30;78.30;;;;;;5022391;28;20253;-87
2021/09/18 02:26:30;;;;;;;7.20;6.70;;;15.00;78.80;;;;;;5032017;28;20206;-87
2021/09/18 02:28:59;;;;;;;6.30;5.73;;;14.90;81.10;;;;;;5028609;28;20209;-87
2021/09/18 02:31:27;;;;;;;6.73;6.23;;;15.10;81.60;;;;;;5038468;28;20197;-87
2021/09/18 02:33:54;;;;;;;8.17;7.37;;;15.20;80.30;;;;;;5026522;28;20243;-87
2021/09/18 02:36:22;;;;;;;6.83;6.23;;;15.40;80.00;;;;;;5049933;28;20183;-87
2021/09/18 02:38:47;;;;;;;7.47;6.77;;;15.50;78.80;;;;;;5046213;28;20225;-87
2021/09/18 02:41:13;;;;;;;6.40;5.93;;;15.60;78.50;;;;;;5039836;28;20239;-87
2021/09/18 02:43:43;;;;;;;6.93;6.23;;;15.60;78.60;;;;;;5009566;28;20209;-87
2021/09/18 02:46:13;;;;;;;7.20;6.60;;;15.70;78.20;;;;;;5041480;28;20243;-87
2021/09/18 02:48:39;;;;;;;6.27;5.87;;;15.70;78.00;;;;;;5023686;28;20208;-87
2021/09/18 02:51:08;;;;;;;6.70;6.20;;;15.60;77.50;;;;;;4991333;28;20213;-87
2021/09/18 02:53:37;;;;;;;6.03;5.63;;;15.70;78.00;;;;;;5024409;28;20204;-87
2021/09/18 02:56:04;;;;;;;29.20;8.13;;;15.60;77.70;;;;;;5008193;28;20197;-87
2021/09/18 02:58:30;;;;;;;6.87;6.27;;;15.60;76.40;;;;;;5009170;28;20278;-87
2021/09/18 03:00:56;;;;;;;6.00;5.60;;;15.50;78.10;;;;;;5024917;28;20207;-87
2021/09/18 03:03:22;;;;;;;6.47;5.97;;;15.60;78.20;;;;;;5024530;28;20203;-87
2021/09/18 03:05:48;;;;;;;5.73;5.23;;;15.50;78.20;;;;;;5023391;28;20191;-87
2021/09/18 03:08:17;;;;;;;6.47;5.80;;;15.60;77.90;;;;;;5040841;28;20216;-87
2021/09/18 03:10:44;;;;;;;6.57;5.90;;;15.60;76.80;;;;;;5007429;28;20220;-87
2021/09/18 03:13:10;;;;;;;6.50;6.00;;;15.50;77.90;;;;;;4989508;28;20209;-87
2021/09/18 03:15:36;;;;;;;7.17;6.57;;;15.40;78.00;;;;;;5029402;28;20200;-87
2021/09/18 03:18:02;;;;;;;6.60;6.10;;;15.40;77.90;;;;;;5026534;28;20270;-87
2021/09/18 03:20:32;;;;;;;7.00;6.00;;;15.30;79.20;;;;;;5010834;28;20217;-87
2021/09/18 03:23:05;;;;;;;6.30;5.80;;;15.40;78.40;;;;;;5040035;28;20199;-87
2021/09/18 03:25:35;;;;;;;6.77;6.17;;;15.50;78.20;;;;;;5024415;28;20204;-87
2021/09/18 03:28:04;;;;;;;6.63;6.13;;;15.50;78.30;;;;;;5043341;28;20219;-87
2021/09/18 03:30:35;;;;;;;5.93;5.47;;;15.50;78.10;;;;;;5007084;28;20211;-87
2021/09/18 03:33:06;;;;;;;6.60;5.93;;;15.50;77.60;;;;;;5024127;28;20204;-87
2021/09/18 03:35:33;;;;;;;5.87;5.47;;;15.40;78.00;;;;;;5044277;28;20225;-87
2021/09/18 03:38:03;;;;;;;6.60;6.10;;;15.40;77.90;;;;;;5022250;28;20280;-87
2021/09/18 03:40:35;;;;;;;6.17;5.67;;;15.50;78.10;;;;;;5043997;28;20255;-87
2021/09/18 03:43:01;;;;;;;5.53;5.03;;;15.50;77.60;;;;;;5024379;28;20185;-87
2021/09/18 03:45:30;;;;;;;7.67;5.73;;;15.50;77.80;;;;;;5028684;28;20201;-87
2021/09/18 03:47:56;;;;;;;6.07;5.57;;;15.40;77.30;;;;;;5023141;28;20267;-88
2021/09/18 03:50:23;;;;;;;7.10;5.67;;;15.40;77.50;;;;;;5040065;28;20193;-88
2021/09/18 03:52:51;;;;;;;5.73;5.33;;;15.40;77.50;;;;;;5023530;28;20201;-88
2021/09/18 03:55:20;;;;;;;7.17;6.47;;;15.40;77.60;;;;;;5018843;28;20535;-88
2021/09/18 03:57:49;;;;;;;6.50;6.00;;;15.30;76.70;;;;;;5031207;28;20215;-88
2021/09/18 04:00:15;;;;;;;6.33;5.73;;;15.10;77.90;;;;;;5021045;28;20717;-88
2021/09/18 04:02:41;;;;;;;6.60;6.10;;;15.10;78.60;;;;;;5020993;28;20201;-88
2021/09/18 04:05:07;;;;;;;6.83;6.23;;;15.00;79.30;;;;;;5014355;28;20209;-88
2021/09/18 04:08:00;;;;;;;6.20;5.70;;;15.10;79.50;;;;;;5041393;28;20309;-88
2021/09/18 04:10:26;;;;;;;6.40;5.90;;;15.00;79.20;;;;;;5025092;28;20201;-88
2021/09/18 04:12:52;;;;;;;5.80;5.27;;;15.10;79.90;;;;;;5039392;28;20296;-88
2021/09/18 04:15:19;;;;;;;7.13;6.00;;;15.10;79.30;;;;;;5021791;28;20696;-87
2021/09/18 04:17:45;;;;;;;6.43;5.83;;;15.10;77.30;;;;;;5007376;28;20222;-88
2021/09/18 04:20:14;;;;;;;6.30;5.80;;;14.60;77.90;;;;;;5026401;28;20199;-88
2021/09/18 04:22:39;;;;;;;6.37;5.87;;;14.40;81.50;;;;;;5029611;28;20306;-88
2021/09/18 04:25:14;;;;;;;6.93;6.23;;;14.50;81.70;;;;;;5028491;28;20662;-88
2021/09/18 04:27:52;;;;;;;5.80;5.40;;;14.60;80.40;;;;;;5038401;28;20746;-88
2021/09/18 04:30:21;;;;;;;6.00;5.50;;;14.70;80.40;;;;;;5020704;28;20196;-88
2021/09/18 04:32:47;;;;;;;5.83;5.27;;;14.80;79.60;;;;;;5004378;28;20222;-88
2021/09/18 04:35:13;;;;;;;11.17;5.47;;;14.90;79.20;;;;;;5005917;28;20200;-88
2021/09/18 04:37:40;;;;;;;6.40;5.90;;;15.00;79.00;;;;;;5037309;28;20243;-88
2021/09/18 04:40:07;;;;;;;5.60;5.20;;;15.00;78.10;;;;;;5006011;28;20197;-88
2021/09/18 04:42:35;;;;;;;7.13;5.20;;;14.90;79.30;;;;;;5019940;28;20201;-88
2021/09/18 04:45:01;;;;;;;5.87;5.37;;;14.90;79.10;;;;;;5038218;28;20264;-88
2021/09/18 04:47:30;;;;;;;7.17;6.47;;;15.00;78.60;;;;;;5037645;28;20266;-88
2021/09/18 04:49:56;;;;;;;6.13;5.60;;;14.80;77.10;;;;;;5035998;28;20194;-88
2021/09/18 04:52:22;;;;;;;5.50;5.10;;;14.50;77.90;;;;;;5039348;28;20176;-88
2021/09/18 04:54:48;;;;;;;6.27;5.67;;;14.30;80.30;;;;;;5033772;28;20192;-88
2021/09/18 04:57:19;;;;;;;6.10;5.50;;;14.40;80.90;;;;;;5034781;28;20189;-88
2021/09/18 04:59:45;;;;;;;5.60;5.10;;;14.50;80.20;;;;;;5039013;28;20211;-88
2021/09/18 05:02:11;;;;;;;6.33;5.83;;;14.60;79.90;;;;;;5037362;28;20275;-88
2021/09/18 05:04:40;;;;;;;6.00;5.50;;;14.70;79.30;;;;;;5001705;28;20207;-89
2021/09/18 05:07:06;;;;;;;6.17;5.47;;;14.70;78.40;;;;;;5001096;28;20719;-88
2021/09/18 05:09:32;;;;;;;5.53;5.03;;;14.70;78.70;;;;;;5037689;28;20216;-88
2021/09/18 05:11:58;;;;;;;7.17;5.50;;;14.70;78.70;;;;;;5004076;28;20247;-88
2021/09/18 05:14:24;;;;;;;5.67;5.17;;;14.60;79.00;;;;;;5016791;28;20192;-89
2021/09/18 05:16:50;;;;;;;6.60;4.97;;;14.70;79.20;;;;;;5034602;28;20190;-89
2021/09/18 05:19:21;;;;;;;5.53;5.03;;;14.60;79.30;;;;;;5017961;28;20320;-88
2021/09/18 05:21:56;;;;;;;5.33;4.83;;;14.60;78.90;;;;;;5021381;28;20195;-88
2021/09/18 05:24:23;;;;;;;5.23;4.83;;;14.60;79.90;;;;;;5035475;28;20218;-89
2021/09/18 05:26:48;;;;;;;5.50;5.10;;;14.70;79.80;;;;;;5039804;28;20665;-88
2021/09/18 05:29:18;;;;;;;5.23;4.73;;;14.70;79.20;;;;;;5036306;28;20213;-88
2021/09/18 05:31:47;;;;;;;5.40;4.90;;;14.70;78.50;;;;;;5022698;28;20283;-89
2021/09/18 05:34:13;;;;;;;5.37;4.87;;;14.60;78.00;;;;;;5023496;28;20259;-89
2021/09/18 05:36:42;;;;;;;5.23;4.83;;;14.50;78.10;;;;;;5023915;28;20316;-89
2021/09/18 05:39:11;;;;;;;5.53;5.03;;;14.50;78.10;;;;;;5045359;28;20191;-89
2021/09/18 05:41:40;;;;;;;5.03;4.53;;;14.50;79.60;;;;;;5052273;28;20200;-90
2021/09/18 05:44:20;;;;;;;;;;;;;;;;;;;;;
2021/09/18 05:46:46;;;;;;;7.00;5.33;;;14.60;78.40;;;;;;5039936;28;20315;-89
2021/09/18 05:49:12;;;;;;;4.83;4.33;;;14.60;80.10;;;;;;5042070;28;20205;-89
2021/09/18 05:51:38;;;;;;;5.70;5.00;;;14.70;78.70;;;;;;5025930;28;20192;-89
2021/09/18 05:54:04;;;;;;;6.37;4.53;;;14.70;79.00;;;;;;5041603;28;20197;-88
2021/09/18 05:56:40;;;;;;;5.40;4.70;;;14.70;78.70;;;;;;5023660;28;20224;-89
2021/09/18 05:59:06;;;;;;;5.33;4.87;;;14.80;78.70;;;;;;5038598;28;20610;-89
2021/09/18 06:01:31;;;;;;;5.33;4.57;;;14.90;78.80;;;;;;5041457;28;20187;-88
2021/09/18 06:03:57;;;;;;;5.07;4.67;;;14.90;79.00;;;;;;5014657;28;20549;-88
2021/09/18 06:06:23;;;;;;;5.67;4.67;;;14.90;78.60;;;;;;5046062;28;20246;-88
2021/09/18 06:08:49;;;;;;;5.20;4.70;;;14.90;78.60;;;;;;5044358;28;20214;-88
2021/09/18 06:11:15;;;;;;;5.83;5.33;;;14.90;79.10;;;;;;5032654;28;20180;-88
2021/09/18 06:13:44;;;;;;;5.97;5.40;;;14.90;79.40;;;;;;5034965;28;20197;-89
2021/09/18 06:16:12;;;;;;;5.83;5.30;;;14.90;79.60;;;;;;5043892;28;20212;-88
2021/09/18 06:18:41;;;;;;;5.97;5.37;;;14.90;79.40;;;;;;5037911;28;20229;-88
2021/09/18 06:21:08;;;;;;;5.87;5.33;;;14.90;79.50;;;;;;5042065;28;20185;-88
2021/09/18 06:23:37;;;;;;;6.00;5.60;;;15.00;79.10;;;;;;5009942;28;20268;-88
2021/09/18 06:26:04;;;;;;;6.03;5.40;;;15.00;79.60;;;;;;5041465;28;20252;-89
2021/09/18 06:28:30;;;;;;;5.97;5.47;;;15.00;80.20;;;;;;5007521;28;20302;-87
2021/09/18 06:30:56;;;;;;;9.37;8.53;;;14.90;80.60;;;;;;5051782;28;20192;-89
2021/09/18 06:33:22;;;;;;;7.17;6.57;;;14.90;81.40;;;;;;5038171;28;20191;-88
2021/09/18 06:35:48;;;;;;;6.97;6.47;;;15.00;81.30;;;;;;5037731;28;20247;-89
2021/09/18 06:38:16;;;;;;;6.30;5.70;;;15.00;81.30;;;;;;5037920;28;20229;-89
2021/09/18 06:40:45;;;;;;;6.37;5.37;;;15.10;80.70;;;;;;5028988;28;20256;-88
2021/09/18 06:43:11;;;;;;;6.10;5.60;;;15.00;81.00;;;;;;5038683;28;20215;-89
2021/09/18 06:45:36;;;;;;;6.10;5.60;;;15.10;81.00;;;;;;5053391;28;20213;-88
2021/09/18 06:48:02;;;;;;;6.67;6.00;;;15.20;80.80;;;;;;5034983;28;20222;-89
2021/09/18 06:50:28;;;;;;;5.97;5.57;;;15.20;80.10;;;;;;5035067;28;20203;-88
2021/09/18 06:52:54;;;;;;;6.27;5.67;;;15.20;79.90;;;;;;5039521;28;20561;-87
2021/09/18 06:55:20;;;;;;;7.77;6.30;;;15.20;79.70;;;;;;5041513;28;20691;-89
2021/09/18 06:57:46;;;;;;;6.23;5.73;;;15.20;80.60;;;;;;5024032;28;20290;-88
2021/09/18 07:00:12;;;;;;;6.00;5.43;;;15.30;80.30;;;;;;5038134;28;20212;-89
2021/09/18 07:02:38;;;;;;;5.50;5.10;;;15.40;79.90;;;;;;5030484;28;20206;-89
2021/09/18 07:05:04;;;;;;;6.67;6.03;;;15.50;79.80;;;;;;5040957;28;20231;-89
2021/09/18 07:07:30;;;;;;;5.97;5.47;;;15.50;79.50;;;;;;5041226;28;20243;-88
2021/09/18 07:09:56;;;;;;;5.97;5.47;;;15.50;80.20;;;;;;5019888;28;20193;-88
2021/09/18 07:12:22;;;;;;;6.83;6.23;;;15.50;80.60;;;;;;5023599;28;20192;-88
2021/09/18 07:14:48;;;;;;;6.60;5.93;;;15.40;80.90;;;;;;5042054;28;20213;-88
2021/09/18 07:17:14;;;;;;;5.83;5.40;;;15.20;82.30;;;;;;5042365;28;20203;-88
2021/09/18 07:19:40;;;;;;;6.40;5.87;;;15.20;82.90;;;;;;5018862;28;20768;-89
2021/09/18 07:22:05;;;;;;;7.43;5.57;;;15.20;82.90;;;;;;5041276;28;20275;-89
2021/09/18 07:24:32;;;;;;;6.70;6.10;;;15.00;82.60;;;;;;5041414;28;20189;-89
2021/09/18 07:26:59;;;;;;;6.77;6.07;;;15.20;82.00;;;;;;5035361;28;20218;-89
2021/09/18 07:29:25;;;;;;;6.20;5.70;;;15.20;82.50;;;;;;5041820;28;20237;-89
2021/09/18 07:31:52;;;;;;;6.20;5.30;;;15.20;82.30;;;;;;5021061;28;20203;-89
2021/09/18 07:34:18;;;;;;;7.53;6.30;;;15.20;82.00;;;;;;5032593;28;20196;-89
2021/09/18 07:36:44;;;;;;;6.80;5.70;;;15.30;81.90;;;;;;5023574;28;20191;-89
2021/09/18 07:39:10;;;;;;;7.60;6.03;;;15.40;82.10;;;;;;5040075;28;20273;-89
2021/09/18 07:41:36;;;;;;;5.97;5.40;;;15.50;81.50;;;;;;5038093;28;20231;-88
2021/09/18 07:44:03;;;;;;;6.20;5.60;;;15.60;81.40;;;;;;5005045;28;20538;-88
2021/09/18 07:46:30;;;;;;;6.70;5.43;;;15.70;81.60;;;;;;5031065;28;20205;-88
2021/09/18 07:48:58;;;;;;;7.80;6.10;;;15.60;81.50;;;;;;5019032;28;20218;-89
2021/09/18 07:51:24;;;;;;;6.20;5.60;;;15.70;81.80;;;;;;5020850;28;20196;-89
2021/09/18 07:53:50;;;;;;;6.10;5.50;;;15.70;82.70;;;;;;5043057;28;20203;-88
2021/09/18 07:56:16;;;;;;;5.63;5.13;;;15.80;81.40;;;;;;5040339;28;20809;-88
2021/09/18 07:58:42;;;;;;;5.80;5.30;;;15.90;82.10;;;;;;5037527;28;20216;-88
2021/09/18 08:01:08;;;;;;;5.80;5.33;;;15.90;81.20;;;;;;5023125;28;20211;-88
2021/09/18 08:03:33;;;;;;;10.13;5.80;;;15.90;80.60;;;;;;5022485;28;20205;-89
2021/09/18 08:05:59;;;;;;;7.43;5.87;;;16.00;81.70;;;;;;5036213;28;20261;-88
2021/09/18 08:08:26;;;;;;;9.10;6.13;;;16.00;81.40;;;;;;5037196;28;20309;-90
2021/09/18 08:10:51;;;;;;;10.53;5.73;;;16.00;81.40;;;;;;5042681;28;20189;-89
2021/09/18 08:13:17;;;;;;;7.33;5.73;;;16.10;81.10;;;;;;5022990;28;20190;-88
2021/09/18 08:15:43;;;;;;;5.90;5.40;;;16.30;81.00;;;;;;5022813;28;20228;-89
2021/09/18 08:18:09;;;;;;;11.43;5.97;;;16.40;80.70;;;;;;5021791;28;20278;-88
2021/09/18 08:20:35;;;;;;;5.90;5.23;;;16.50;79.90;;;;;;5037912;28;20215;-88
2021/09/18 08:23:00;;;;;;;6.17;5.57;;;16.70;79.70;;;;;;5036714;28;20193;-87
2021/09/18 08:25:26;;;;;;;7.17;5.53;;;16.70;78.90;;;;;;5039666;28;20193;-88
2021/09/18 08:27:52;;;;;;;6.33;5.73;;;16.80;78.30;;;;;;5040141;28;20547;-88
2021/09/18 08:30:18;;;;;;;10.07;6.50;;;16.90;78.70;;;;;;5040194;28;20226;-88
2021/09/18 08:32:45;;;;;;;11.17;6.83;;;17.00;78.10;;;;;;5032625;28;20280;-88
2021/09/18 08:35:12;;;;;;;6.93;6.33;;;17.10;77.40;;;;;;5039279;28;20189;-88
2021/09/18 08:37:38;;;;;;;6.67;6.00;;;17.20;77.50;;;;;;5023391;28;20272;-88
2021/09/18 08:40:05;;;;;;;9.03;8.17;;;17.30;78.00;;;;;;5046500;28;20251;-87
2021/09/18 08:42:31;;;;;;;8.63;7.93;;;17.50;77.20;;;;;;5048471;28;20184;-90
2021/09/18 08:44:57;;;;;;;9.37;8.43;;;17.60;76.80;;;;;;5027618;28;20262;-89
2021/09/18 08:47:24;;;;;;;13.43;7.60;;;17.70;76.40;;;;;;5022080;28;20228;-90
2021/09/18 08:49:51;;;;;;;7.97;7.30;;;17.80;75.80;;;;;;5041248;28;20199;-90
2021/09/18 08:52:17;;;;;;;7.80;7.20;;;18.00;75.40;;;;;;5022188;28;20255;-90
2021/09/18 08:54:43;;;;;;;8.50;7.70;;;18.10;75.20;;;;;;5019557;28;20193;-89
2021/09/18 08:57:14;;;;;;;7.07;6.47;;;18.20;74.80;;;;;;5040185;28;20722;-90
2021/09/18 08:59:47;;;;;;;7.47;6.70;;;18.40;75.00;;;;;;5028641;28;20243;-90
2021/09/18 09:02:23;;;;;;;7.13;6.37;;;18.70;73.30;;;;;;5023136;28;20231;-90
2021/09/18 09:05:02;;;;;;;7.50;7.00;;;18.90;73.60;;;;;;5040883;28;20196;-90
2021/09/18 09:07:28;;;;;;;7.03;6.45;;;19.00;71.80;;;;;;5022011;28;20266;-90
2021/09/18 09:10:02;;;;;;;7.15;6.13;;;19.10;71.20;;;;;;5038584;28;20694;-90
2021/09/18 09:12:28;;;;;;;10.75;7.07;;;19.10;70.80;;;;;;5017552;28;20247;-90
2021/09/18 09:14:58;;;;;;;6.25;5.75;;;19.30;71.10;;;;;;5039162;28;20188;-90
2021/09/18 09:17:30;;;;;;;7.03;6.20;;;19.30;71.20;;;;;;5040225;28;20190;-89
2021/09/18 09:19:57;;;;;;;10.85;6.80;;;19.60;69.60;;;;;;5023950;28;20201;-90
2021/09/18 09:22:42;;;;;;;11.98;6.97;;;19.80;69.00;;;;;;5023942;28;20942;-89
2021/09/18 09:25:26;;;;;;;6.65;5.80;;;19.90;68.70;;;;;;5025727;28;20189;-88
2021/09/18 09:27:53;;;;;;;8.82;6.30;;;20.10;68.20;;;;;;5031035;28;20212;-89
2021/09/18 09:30:32;;;;;;;6.13;5.55;;;20.40;68.00;;;;;;5010074;28;20199;-89
2021/09/18 09:33:06;;;;;;;5.90;5.50;;;20.50;67.00;;;;;;5035765;28;20740;-90
2021/09/18 09:35:32;;;;;;;6.03;5.40;;;20.60;67.10;;;;;;5043274;28;20215;-89
2021/09/18 09:37:57;;;;;;;5.70;5.22;;;20.70;66.50;;;;;;5042282;28;20223;-88
2021/09/18 09:40:38;;;;;;;6.32;5.78;;;20.80;64.70;;;;;;5039805;28;20196;-88
2021/09/18 09:43:07;;;;;;;5.43;4.93;;;21.00;64.80;;;;;;5042800;28;20194;-88
2021/09/18 09:45:33;;;;;;;5.13;4.40;;;21.00;65.00;;;;;;5003765;28;20634;-88
2021/09/18 09:48:01;;;;;;;5.38;4.88;;;21.20;64.50;;;;;;5042335;28;20659;-87
2021/09/18 09:50:27;;;;;;;4.95;4.45;;;21.40;62.90;;;;;;5041500;28;20187;-88
2021/09/18 09:52:55;;;;;;;4.57;4.18;;;21.40;59.80;;;;;;5008438;28;20200;-88
2021/09/18 09:55:21;;;;;;;8.43;4.60;;;21.60;58.50;;;;;;5022728;28;20679;-87
2021/09/18 09:57:58;;;;;;;4.32;3.88;;;21.70;59.40;;;;;;5022430;28;20222;-89
2021/09/18 10:00:23;;;;;;;6.03;3.53;;;22.00;55.00;;;;;;5027050;28;20221;-89
2021/09/18 10:02:49;;;;;;;6.93;3.72;;;22.20;52.40;;;;;;5030867;28;20196;-89
2021/09/18 10:05:16;;;;;;;6.63;4.22;;;22.50;52.90;;;;;;5050717;28;20180;-87
2021/09/18 10:07:42;;;;;;;4.45;3.75;;;22.60;52.90;;;;;;5034780;28;20321;-87
2021/09/18 10:10:11;;;;;;;4.28;3.88;;;22.70;51.50;;;;;;5048845;28;20197;-89
2021/09/18 10:12:38;;;;;;;4.28;3.90;;;22.70;52.20;;;;;;5044953;28;20204;-89
2021/09/18 10:15:08;;;;;;;4.03;3.72;;;22.90;50.30;;;;;;5031404;28;20188;-87
2021/09/18 10:17:38;;;;;;;4.03;3.72;;;23.00;48.50;;;;;;5024259;28;20342;-87
2021/09/18 10:23:13;;;;;;;3.95;3.65;;;23.10;49.70;;;;;;5007289;28;20196;-87
2021/09/18 10:25:39;;;;;;;3.33;3.03;;;23.10;48.80;;;;;;5041029;28;20589;-90
2021/09/18 10:28:27;;;;;;;4.10;3.70;;;23.30;49.80;;;;;;5026484;28;20255;-86
2021/09/18 10:30:57;;;;;;;3.58;2.90;;;23.60;48.80;;;;;;5041600;28;20201;-87
2021/09/18 10:33:26;;;;;;;3.92;3.55;;;23.80;47.70;;;;;;5041969;28;20185;-88
2021/09/18 10:36:10;;;;;;;3.92;3.60;;;23.80;47.00;;;;;;5042112;28;20188;-90
2021/09/18 10:38:45;;;;;;;4.75;3.55;;;23.90;46.70;;;;;;5043274;28;20251;-87
2021/09/18 10:41:24;;;;;;;3.83;3.53;;;24.20;46.60;;;;;;5042441;28;20204;-87
2021/09/18 10:43:59;;;;;;;3.65;3.38;;;24.10;46.40;;;;;;5041940;28;20193;-88
2021/09/18 10:46:41;;;;;;;4.90;3.72;;;24.00;46.90;;;;;;5023716;28;20196;-89
2021/09/18 10:49:30;;;;;;;3.90;3.60;;;24.20;48.30;;;;;;5024896;28;20216;-89
2021/09/18 10:52:15;;;;;;;4.22;3.45;;;24.20;48.30;;;;;;5036925;28;20192;-88
2021/09/18 10:55:04;;;;;;;3.67;3.40;;;24.60;46.80;;;;;;5052845;28;20199;-90
2021/09/18 10:57:42;;;;;;;4.53;3.97;;;24.90;45.40;;;;;;5045211;28;20253;-89
2021/09/18 11:00:09;;;;;;;4.07;3.67;;;25.00;44.90;;;;;;5026558;28;20189;-89
2021/09/18 11:02:35;;;;;;;4.38;3.45;;;24.90;44.40;;;;;;5044247;28;20534;-88
2021/09/18 11:05:04;;;;;;;4.43;4.13;;;25.10;46.50;;;;;;5041621;28;20200;-89
2021/09/18 11:07:39;;;;;;;4.20;3.85;;;25.30;45.00;;;;;;5039784;28;20403;-89
2021/09/18 11:10:11;;;;;;;3.63;3.40;;;25.10;45.70;;;;;;5040802;28;20185;-89
2021/09/18 11:12:37;;;;;;;3.97;3.58;;;25.60;44.20;;;;;;5040686;28;20195;-90
2021/09/18 11:15:12;;;;;;;3.40;3.20;;;25.90;41.80;;;;;;5018673;28;20201;-90
2021/09/18 11:17:43;;;;;;;3.30;3.00;;;26.00;40.20;;;;;;5032258;28;20208;-90
2021/09/18 11:20:16;;;;;;;4.07;3.60;;;26.00;39.90;;;;;;5016774;28;20195;-89
2021/09/18 11:22:44;;;;;;;3.38;3.17;;;25.60;40.70;;;;;;5021123;28;20199;-87
2021/09/18 11:25:31;;;;;;;3.35;3.15;;;25.80;41.10;;;;;;5019913;28;20189;-88
2021/09/18 11:28:12;;;;;;;3.55;3.10;;;25.80;41.00;;;;;;5033097;28;20209;-86
2021/09/18 11:30:54;;;;;;;3.15;2.95;;;26.20;40.00;;;;;;5039757;28;20185;-88
2021/09/18 11:33:24;;;;;;;2.90;2.70;;;25.80;38.80;;;;;;5036851;28;20391;-87
2021/09/18 11:36:01;;;;;;;3.30;3.10;;;25.80;39.60;;;;;;5023995;28;20193;-86
2021/09/18 11:38:32;;;;;;;3.08;2.80;;;26.00;38.90;;;;;;5040506;28;20208;-87
2021/09/18 11:41:15;;;;;;;4.00;2.63;;;25.80;38.30;;;;;;5041911;28;20248;-86
2021/09/18 11:43:42;;;;;;;3.78;2.95;;;26.10;36.90;;;;;;5023811;28;20197;-87
2021/09/18 11:46:09;;;;;;;3.05;2.85;;;26.40;36.30;;;;;;5039876;28;20247;-87
2021/09/18 11:48:36;;;;;;;3.05;2.85;;;26.60;36.80;;;;;;5040144;28;20221;-87
2021/09/18 11:51:05;;;;;;;3.53;2.88;;;26.40;36.80;;;;;;5053700;28;20185;-87
2021/09/18 11:53:31;;;;;;;3.60;3.30;;;26.60;38.50;;;;;;5014320;28;20185;-87
2021/09/18 11:55:58;;;;;;;3.35;3.10;;;27.10;37.00;;;;;;4998523;28;20193;-87
2021/09/18 11:58:23;;;;;;;5.03;2.97;;;27.00;37.60;;;;;;5023540;28;20288;-87
2021/09/18 12:00:52;;;;;;;3.65;3.30;;;27.30;36.30;;;;;;5039199;28;20201;-87
2021/09/18 12:03:27;;;;;;;3.30;3.10;;;27.50;36.60;;;;;;5034527;28;20212;-87
2021/09/18 12:05:54;;;;;;;5.13;3.33;;;27.20;36.50;;;;;;5042431;28;20259;-87
2021/09/18 12:08:22;;;;;;;3.40;3.10;;;27.20;37.70;;;;;;5040269;28;20212;-87
2021/09/18 12:10:54;;;;;;;3.50;3.20;;;27.40;37.80;;;;;;5024442;28;20192;-87
2021/09/18 12:13:22;;;;;;;3.38;3.10;;;27.90;37.20;;;;;;5039169;28;20189;-87
2021/09/18 12:15:49;;;;;;;5.13;4.63;;;28.10;36.70;;;;;;5037615;28;20235;-88
2021/09/18 12:18:22;;;;;;;3.00;2.80;;;28.10;36.00;;;;;;5037248;28;20216;-87
2021/09/18 12:20:48;;;;;;;3.60;3.30;;;27.80;34.70;;;;;;5040602;28;20240;-87
2021/09/18 12:23:14;;;;;;;3.45;3.25;;;28.10;35.60;;;;;;5020712;28;20216;-87
2021/09/18 12:25:40;;;;;;;3.50;3.30;;;28.50;35.40;;;;;;5038970;28;20189;-87
2021/09/18 12:28:06;;;;;;;3.30;3.10;;;28.70;34.60;;;;;;5039013;28;20238;-87
2021/09/18 12:30:42;;;;;;;3.30;3.10;;;28.50;35.10;;;;;;5040681;28;20197;-87
2021/09/18 12:33:15;;;;;;;3.30;3.00;;;28.20;35.30;;;;;;5038970;28;20185;-88
2021/09/18 12:35:46;;;;;;;3.78;3.22;;;27.90;35.10;;;;;;5037216;28;20201;-87
2021/09/18 12:38:14;;;;;;;3.20;3.00;;;27.80;35.30;;;;;;5037189;28;20751;-87
2021/09/18 12:40:47;;;;;;;3.50;3.20;;;28.10;34.40;;;;;;5006689;28;20197;-87
2021/09/18 12:43:15;;;;;;;3.40;3.20;;;28.60;33.80;;;;;;5021987;28;20199;-87
2021/09/18 12:45:42;;;;;;;3.40;3.20;;;28.50;33.90;;;;;;5033797;28;20239;-88
2021/09/18 12:48:23;;;;;;;3.90;3.13;;;29.00;33.60;;;;;;5037866;28;20283;-87
2021/09/18 12:51:09;;;;;;;3.97;3.10;;;29.20;31.80;;;;;;5041514;28;20173;-87
2021/09/18 12:53:45;;;;;;;3.53;3.33;;;29.40;30.50;;;;;;5038870;28;20197;-87
2021/09/18 12:56:32;;;;;;;3.70;3.50;;;29.40;32.00;;;;;;5038216;28;20202;-87
2021/09/18 12:58:59;;;;;;;3.53;3.33;;;29.70;30.90;;;;;;5037925;28;20204;-87